sensor_id;sensor_type;location;lat;lon;timestamp;P1;durP1;ratioP1;P2;durP2;ratioP2
4460;SDS011;2243;48.812;9.232;2022-09-16T00:00:53;8.57;;;6.13;;
4460;SDS011;2243;48.812;9.232;2022-09-16T00:03:24;6.57;;;5.97;;
4460;SDS011;2243;48.812;9.232;2022-09-16T00:05:55;5.60;;;5.17;;
4460;SDS011;2243;48.812;9.232;2022-09-16T00:08:26;7.97;;;5.97;;
4460;SDS011;2243;48.812;9.232;2022-09-16T00:11:00;11.90;;;6.90;;
4460;SDS011;2243;48.812;9.232;2022-09-16T00:13:32;8.20;;;5.43;;
4460;SDS011;2243;48.812;9.232;2022-09-16T00:16:06;6.57;;;5.97;;
4460;SDS011;2243;48.812;9.232;2022-09-16T00:18:39;6.13;;;5.53;;
4460;SDS011;2243;48.812;9.232;2022-09-16T00:21:10;10.00;;;6.30;;
4460;SDS011;2243;48.812;9.232;2022-09-16T00:23:41;6.63;;;6.00;;
4460;SDS011;2243;48.812;9.232;2022-09-16T00:26:12;6.77;;;6.17;;
4460;SDS011;2243;48.812;9.232;2022-09-16T00:28:46;6.93;;;5.80;;
4460;SDS011;2243;48.812;9.232;2022-09-16T00:31:19;10.83;;;5.73;;
4460;SDS011;2243;48.812;9.232;2022-09-16T00:33:50;6.10;;;5.50;;
4460;SDS011;2243;48.812;9.232;2022-09-16T00:36:21;6.40;;;5.80;;
4460;SDS011;2243;48.812;9.232;2022-09-16T00:38:53;5.87;;;5.33;;
4460;SDS011;2243;48.812;9.232;2022-09-16T00:41:26;12.47;;;5.43;;
4460;SDS011;2243;48.812;9.232;2022-09-16T00:44:03;9.23;;;5.53;;
4460;SDS011;2243;48.812;9.232;2022-09-16T00:46:44;6.20;;;5.53;;
4460;SDS011;2243;48.812;9.232;2022-09-16T00:49:22;8.33;;;5.30;;
4460;SDS011;2243;48.812;9.232;2022-09-16T00:51:59;5.63;;;4.83;;
4460;SDS011;2243;48.812;9.232;2022-09-16T00:54:35;6.43;;;5.80;;
4460;SDS011;2243;48.812;9.232;2022-09-16T00:57:09;5.97;;;5.47;;
4460;SDS011;2243;48.812;9.232;2022-09-16T00:59:43;5.20;;;4.90;;
4460;SDS011;2243;48.812;9.232;2022-09-16T01:02:20;5.47;;;4.83;;
4460;SDS011;2243;48.812;9.232;2022-09-16T01:04:54;6.03;;;5.27;;
4460;SDS011;2243;48.812;9.232;2022-09-16T01:07:32;5.70;;;5.20;;
4460;SDS011;2243;48.812;9.232;2022-09-16T01:10:10;11.90;;;6.67;;
4460;SDS011;2243;48.812;9.232;2022-09-16T01:12:48;5.53;;;5.07;;
4460;SDS011;2243;48.812;9.232;2022-09-16T01:22:01;5.10;;;4.60;;
4460;SDS011;2243;48.812;9.232;2022-09-16T01:25:17;6.87;;;5.60;;
4460;SDS011;2243;48.812;9.232;2022-09-16T01:31:42;7.80;;;5.57;;
4460;SDS011;2243;48.812;9.232;2022-09-16T01:34:49;7.60;;;5.70;;
4460;SDS011;2243;48.812;9.232;2022-09-16T01:37:46;6.40;;;5.80;;
4460;SDS011;2243;48.812;9.232;2022-09-16T01:43:54;7.03;;;5.50;;
4460;SDS011;2243;48.812;9.232;2022-09-16T01:46:46;6.83;;;5.87;;
4460;SDS011;2243;48.812;9.232;2022-09-16T01:52:45;5.67;;;4.77;;
4460;SDS011;2243;48.812;9.232;2022-09-16T01:55:40;6.03;;;5.43;;
4460;SDS011;2243;48.812;9.232;2022-09-16T02:01:58;6.53;;;5.30;;
4460;SDS011;2243;48.812;9.232;2022-09-16T02:04:16;5.77;;;5.30;;
4460;SDS011;2243;48.812;9.232;2022-09-16T02:06:53;10.20;;;5.27;;
4460;SDS011;2243;48.812;9.232;2022-09-16T02:09:31;8.70;;;5.53;;
4460;SDS011;2243;48.812;9.232;2022-09-16T02:12:09;7.67;;;4.60;;
4460;SDS011;2243;48.812;9.232;2022-09-16T02:14:46;8.57;;;4.60;;
4460;SDS011;2243;48.812;9.232;2022-09-16T02:17:20;4.80;;;4.40;;
4460;SDS011;2243;48.812;9.232;2022-09-16T02:19:57;4.97;;;4.30;;
4460;SDS011;2243;48.812;9.232;2022-09-16T02:22:42;8.70;;;4.67;;
4460;SDS011;2243;48.812;9.232;2022-09-16T02:25:18;3.97;;;3.60;;
4460;SDS011;2243;48.812;9.232;2022-09-16T02:27:50;4.80;;;4.40;;
4460;SDS011;2243;48.812;9.232;2022-09-16T02:30:23;5.03;;;4.53;;
4460;SDS011;2243;48.812;9.232;2022-09-16T02:32:55;7.00;;;4.40;;
4460;SDS011;2243;48.812;9.232;2022-09-16T02:35:33;7.43;;;3.87;;
4460;SDS011;2243;48.812;9.232;2022-09-16T02:38:11;6.17;;;5.03;;
4460;SDS011;2243;48.812;9.232;2022-09-16T02:40:55;4.87;;;4.47;;
4460;SDS011;2243;48.812;9.232;2022-09-16T02:43:28;7.60;;;4.10;;
4460;SDS011;2243;48.812;9.232;2022-09-16T02:46:06;3.70;;;3.50;;
4460;SDS011;2243;48.812;9.232;2022-09-16T02:51:57;12.23;;;4.70;;
4460;SDS011;2243;48.812;9.232;2022-09-16T02:54:35;3.97;;;3.73;;
4460;SDS011;2243;48.812;9.232;2022-09-16T02:57:29;5.37;;;4.10;;
4460;SDS011;2243;48.812;9.232;2022-09-16T03:00:01;4.53;;;4.00;;
4460;SDS011;2243;48.812;9.232;2022-09-16T03:02:32;4.30;;;3.90;;
4460;SDS011;2243;48.812;9.232;2022-09-16T03:05:04;4.80;;;3.70;;
4460;SDS011;2243;48.812;9.232;2022-09-16T03:07:36;8.50;;;3.80;;
4460;SDS011;2243;48.812;9.232;2022-09-16T03:10:11;3.83;;;3.43;;
4460;SDS011;2243;48.812;9.232;2022-09-16T03:18:58;6.07;;;3.97;;
4460;SDS011;2243;48.812;9.232;2022-09-16T03:22:06;4.20;;;3.80;;
4460;SDS011;2243;48.812;9.232;2022-09-16T03:25:25;3.87;;;3.57;;
4460;SDS011;2243;48.812;9.232;2022-09-16T03:28:18;5.27;;;3.77;;
4460;SDS011;2243;48.812;9.232;2022-09-16T03:33:59;5.93;;;3.83;;
4460;SDS011;2243;48.812;9.232;2022-09-16T03:36:44;4.50;;;3.70;;
4460;SDS011;2243;48.812;9.232;2022-09-16T03:39:22;5.37;;;4.03;;
4460;SDS011;2243;48.812;9.232;2022-09-16T03:41:53;4.10;;;3.80;;
4460;SDS011;2243;48.812;9.232;2022-09-16T03:44:35;7.90;;;3.60;;
4460;SDS011;2243;48.812;9.232;2022-09-16T03:47:09;4.93;;;3.70;;
4460;SDS011;2243;48.812;9.232;2022-09-16T03:49:40;3.80;;;3.50;;
4460;SDS011;2243;48.812;9.232;2022-09-16T03:52:10;3.90;;;3.50;;
4460;SDS011;2243;48.812;9.232;2022-09-16T03:54:41;4.10;;;3.50;;
4460;SDS011;2243;48.812;9.232;2022-09-16T03:57:12;8.10;;;3.90;;
4460;SDS011;2243;48.812;9.232;2022-09-16T03:59:43;5.80;;;3.90;;
4460;SDS011;2243;48.812;9.232;2022-09-16T04:02:14;4.57;;;3.30;;
4460;SDS011;2243;48.812;9.232;2022-09-16T04:04:45;7.20;;;4.00;;
4460;SDS011;2243;48.812;9.232;2022-09-16T04:07:16;3.73;;;3.43;;
4460;SDS011;2243;48.812;9.232;2022-09-16T04:09:47;4.83;;;3.00;;
4460;SDS011;2243;48.812;9.232;2022-09-16T04:12:18;5.50;;;4.00;;
4460;SDS011;2243;48.812;9.232;2022-09-16T04:14:49;5.57;;;3.60;;
4460;SDS011;2243;48.812;9.232;2022-09-16T04:17:20;3.77;;;3.40;;
4460;SDS011;2243;48.812;9.232;2022-09-16T04:19:50;8.30;;;3.60;;
4460;SDS011;2243;48.812;9.232;2022-09-16T04:22:22;4.03;;;3.43;;
4460;SDS011;2243;48.812;9.232;2022-09-16T04:24:53;5.60;;;4.20;;
4460;SDS011;2243;48.812;9.232;2022-09-16T04:27:24;7.03;;;4.03;;
4460;SDS011;2243;48.812;9.232;2022-09-16T04:29:55;6.00;;;4.23;;
4460;SDS011;2243;48.812;9.232;2022-09-16T04:32:26;3.23;;;3.03;;
4460;SDS011;2243;48.812;9.232;2022-09-16T04:34:56;6.10;;;3.50;;
4460;SDS011;2243;48.812;9.232;2022-09-16T04:37:28;5.50;;;4.07;;
4460;SDS011;2243;48.812;9.232;2022-09-16T04:40:00;4.60;;;3.60;;
4460;SDS011;2243;48.812;9.232;2022-09-16T04:42:34;8.30;;;4.33;;
4460;SDS011;2243;48.812;9.232;2022-09-16T04:45:05;4.90;;;4.23;;
4460;SDS011;2243;48.812;9.232;2022-09-16T04:47:37;4.27;;;3.97;;
4460;SDS011;2243;48.812;9.232;2022-09-16T04:50:08;4.37;;;3.87;;
4460;SDS011;2243;48.812;9.232;2022-09-16T04:52:39;15.80;;;4.80;;
4460;SDS011;2243;48.812;9.232;2022-09-16T04:55:10;3.93;;;3.53;;
4460;SDS011;2243;48.812;9.232;2022-09-16T04:57:41;6.70;;;4.00;;
4460;SDS011;2243;48.812;9.232;2022-09-16T05:00:12;4.40;;;4.00;;
4460;SDS011;2243;48.812;9.232;2022-09-16T05:02:44;4.63;;;4.03;;
4460;SDS011;2243;48.812;9.232;2022-09-16T05:05:15;6.27;;;4.90;;
4460;SDS011;2243;48.812;9.232;2022-09-16T05:07:46;6.47;;;4.67;;
4460;SDS011;2243;48.812;9.232;2022-09-16T05:10:17;6.70;;;4.17;;
4460;SDS011;2243;48.812;9.232;2022-09-16T05:12:51;5.23;;;4.50;;
4460;SDS011;2243;48.812;9.232;2022-09-16T05:15:23;4.37;;;4.00;;
4460;SDS011;2243;48.812;9.232;2022-09-16T05:17:54;5.10;;;4.27;;
4460;SDS011;2243;48.812;9.232;2022-09-16T05:20:24;4.50;;;4.10;;
4460;SDS011;2243;48.812;9.232;2022-09-16T05:22:56;5.03;;;4.63;;
4460;SDS011;2243;48.812;9.232;2022-09-16T05:25:26;4.50;;;4.17;;
4460;SDS011;2243;48.812;9.232;2022-09-16T05:27:57;7.33;;;4.53;;
4460;SDS011;2243;48.812;9.232;2022-09-16T05:30:30;5.30;;;3.80;;
4460;SDS011;2243;48.812;9.232;2022-09-16T05:33:01;5.60;;;4.13;;
4460;SDS011;2243;48.812;9.232;2022-09-16T05:35:32;4.83;;;3.70;;
4460;SDS011;2243;48.812;9.232;2022-09-16T05:38:03;4.83;;;4.00;;
4460;SDS011;2243;48.812;9.232;2022-09-16T05:40:34;5.90;;;4.50;;
4460;SDS011;2243;48.812;9.232;2022-09-16T05:43:05;5.20;;;4.80;;
4460;SDS011;2243;48.812;9.232;2022-09-16T05:45:36;6.37;;;4.93;;
4460;SDS011;2243;48.812;9.232;2022-09-16T05:48:07;5.50;;;4.73;;
4460;SDS011;2243;48.812;9.232;2022-09-16T05:50:38;5.00;;;4.50;;
4460;SDS011;2243;48.812;9.232;2022-09-16T05:53:09;5.30;;;4.43;;
4460;SDS011;2243;48.812;9.232;2022-09-16T05:55:40;5.57;;;4.33;;
4460;SDS011;2243;48.812;9.232;2022-09-16T05:58:11;5.07;;;4.63;;
4460;SDS011;2243;48.812;9.232;2022-09-16T06:00:42;5.27;;;4.80;;
4460;SDS011;2243;48.812;9.232;2022-09-16T06:03:13;6.90;;;5.33;;
4460;SDS011;2243;48.812;9.232;2022-09-16T06:05:45;5.13;;;4.70;;
4460;SDS011;2243;48.812;9.232;2022-09-16T06:08:16;7.03;;;4.90;;
4460;SDS011;2243;48.812;9.232;2022-09-16T06:10:47;6.33;;;5.47;;
4460;SDS011;2243;48.812;9.232;2022-09-16T06:13:18;5.30;;;4.40;;
4460;SDS011;2243;48.812;9.232;2022-09-16T06:15:49;5.90;;;5.40;;
4460;SDS011;2243;48.812;9.232;2022-09-16T06:18:24;6.20;;;4.70;;
4460;SDS011;2243;48.812;9.232;2022-09-16T06:21:01;8.13;;;5.07;;
4460;SDS011;2243;48.812;9.232;2022-09-16T06:23:37;8.93;;;5.77;;
4460;SDS011;2243;48.812;9.232;2022-09-16T06:26:13;5.00;;;4.50;;
4460;SDS011;2243;48.812;9.232;2022-09-16T06:28:47;6.80;;;4.23;;
4460;SDS011;2243;48.812;9.232;2022-09-16T06:31:19;5.73;;;4.23;;
4460;SDS011;2243;48.812;9.232;2022-09-16T06:33:56;4.70;;;3.70;;
4460;SDS011;2243;48.812;9.232;2022-09-16T06:36:28;6.40;;;3.70;;
4460;SDS011;2243;48.812;9.232;2022-09-16T06:39:14;6.00;;;4.93;;
4460;SDS011;2243;48.812;9.232;2022-09-16T06:41:46;5.70;;;3.70;;
4460;SDS011;2243;48.812;9.232;2022-09-16T06:44:17;4.70;;;3.97;;
4460;SDS011;2243;48.812;9.232;2022-09-16T06:46:48;6.30;;;4.23;;
4460;SDS011;2243;48.812;9.232;2022-09-16T06:49:18;6.63;;;4.10;;
4460;SDS011;2243;48.812;9.232;2022-09-16T06:51:49;4.53;;;4.03;;
4460;SDS011;2243;48.812;9.232;2022-09-16T06:54:20;5.43;;;4.50;;
4460;SDS011;2243;48.812;9.232;2022-09-16T06:56:51;4.80;;;3.90;;
4460;SDS011;2243;48.812;9.232;2022-09-16T06:59:22;5.13;;;4.17;;
4460;SDS011;2243;48.812;9.232;2022-09-16T07:01:53;15.97;;;4.80;;
4460;SDS011;2243;48.812;9.232;2022-09-16T07:04:24;6.13;;;5.53;;
4460;SDS011;2243;48.812;9.232;2022-09-16T07:06:56;5.23;;;3.50;;
4460;SDS011;2243;48.812;9.232;2022-09-16T07:09:39;3.47;;;3.17;;
4460;SDS011;2243;48.812;9.232;2022-09-16T07:12:10;4.30;;;3.57;;
4460;SDS011;2243;48.812;9.232;2022-09-16T07:14:46;9.10;;;3.10;;
4460;SDS011;2243;48.812;9.232;2022-09-16T07:17:17;3.87;;;2.93;;
4460;SDS011;2243;48.812;9.232;2022-09-16T07:19:48;3.93;;;3.43;;
4460;SDS011;2243;48.812;9.232;2022-09-16T07:22:19;7.63;;;3.40;;
4460;SDS011;2243;48.812;9.232;2022-09-16T07:24:50;4.50;;;4.10;;
4460;SDS011;2243;48.812;9.232;2022-09-16T07:27:21;4.60;;;4.20;;
4460;SDS011;2243;48.812;9.232;2022-09-16T07:29:51;6.70;;;4.00;;
4460;SDS011;2243;48.812;9.232;2022-09-16T07:32:29;4.07;;;3.70;;
4460;SDS011;2243;48.812;9.232;2022-09-16T07:35:00;3.93;;;3.53;;
4460;SDS011;2243;48.812;9.232;2022-09-16T07:37:31;3.57;;;3.27;;
4460;SDS011;2243;48.812;9.232;2022-09-16T07:40:11;3.73;;;3.30;;
4460;SDS011;2243;48.812;9.232;2022-09-16T07:42:42;4.77;;;4.13;;
4460;SDS011;2243;48.812;9.232;2022-09-16T07:45:13;3.57;;;3.30;;
4460;SDS011;2243;48.812;9.232;2022-09-16T07:47:47;4.60;;;4.07;;
4460;SDS011;2243;48.812;9.232;2022-09-16T07:50:19;4.80;;;4.40;;
4460;SDS011;2243;48.812;9.232;2022-09-16T07:52:53;5.27;;;3.73;;
4460;SDS011;2243;48.812;9.232;2022-09-16T07:55:25;4.37;;;3.77;;
4460;SDS011;2243;48.812;9.232;2022-09-16T07:57:56;3.87;;;3.50;;
4460;SDS011;2243;48.812;9.232;2022-09-16T08:00:27;5.87;;;4.37;;
4460;SDS011;2243;48.812;9.232;2022-09-16T08:02:58;5.27;;;4.00;;
4460;SDS011;2243;48.812;9.232;2022-09-16T08:05:29;4.97;;;4.13;;
4460;SDS011;2243;48.812;9.232;2022-09-16T08:08:01;4.80;;;4.30;;
4460;SDS011;2243;48.812;9.232;2022-09-16T08:10:32;5.43;;;4.93;;
4460;SDS011;2243;48.812;9.232;2022-09-16T08:13:03;4.37;;;3.97;;
4460;SDS011;2243;48.812;9.232;2022-09-16T08:15:36;4.80;;;3.63;;
4460;SDS011;2243;48.812;9.232;2022-09-16T08:18:07;4.47;;;4.07;;
4460;SDS011;2243;48.812;9.232;2022-09-16T08:20:38;6.90;;;4.57;;
4460;SDS011;2243;48.812;9.232;2022-09-16T08:23:09;5.03;;;4.40;;
4460;SDS011;2243;48.812;9.232;2022-09-16T08:25:41;5.70;;;4.73;;
4460;SDS011;2243;48.812;9.232;2022-09-16T08:28:13;4.40;;;4.00;;
4460;SDS011;2243;48.812;9.232;2022-09-16T08:30:45;4.67;;;4.27;;
4460;SDS011;2243;48.812;9.232;2022-09-16T08:33:22;4.90;;;4.40;;
4460;SDS011;2243;48.812;9.232;2022-09-16T08:38:55;5.17;;;4.77;;
4460;SDS011;2243;48.812;9.232;2022-09-16T08:50:43;5.73;;;5.23;;
4460;SDS011;2243;48.812;9.232;2022-09-16T08:53:18;5.00;;;4.60;;
4460;SDS011;2243;48.812;9.232;2022-09-16T08:56:04;7.20;;;5.43;;
4460;SDS011;2243;48.812;9.232;2022-09-16T08:58:42;6.40;;;5.80;;
4460;SDS011;2243;48.812;9.232;2022-09-16T09:01:20;13.80;;;5.83;;
4460;SDS011;2243;48.812;9.232;2022-09-16T09:03:58;6.70;;;5.30;;
4460;SDS011;2243;48.812;9.232;2022-09-16T09:15:39;5.97;;;5.37;;
4460;SDS011;2243;48.812;9.232;2022-09-16T09:18:39;13.13;;;6.47;;
4460;SDS011;2243;48.812;9.232;2022-09-16T09:26:55;5.90;;;5.27;;
4460;SDS011;2243;48.812;9.232;2022-09-16T09:42:02;10.83;;;5.40;;
4460;SDS011;2243;48.812;9.232;2022-09-16T09:47:33;6.63;;;4.80;;
4460;SDS011;2243;48.812;9.232;2022-09-16T09:55:40;7.10;;;4.43;;
4460;SDS011;2243;48.812;9.232;2022-09-16T09:58:23;4.63;;;4.10;;
4460;SDS011;2243;48.812;9.232;2022-09-16T10:01:11;7.50;;;4.60;;
4460;SDS011;2243;48.812;9.232;2022-09-16T10:03:46;4.63;;;4.17;;
4460;SDS011;2243;48.812;9.232;2022-09-16T10:06:22;4.23;;;3.93;;
4460;SDS011;2243;48.812;9.232;2022-09-16T10:09:01;3.83;;;3.40;;
4460;SDS011;2243;48.812;9.232;2022-09-16T10:11:33;4.53;;;4.23;;
4460;SDS011;2243;48.812;9.232;2022-09-16T10:17:12;6.50;;;4.83;;
4460;SDS011;2243;48.812;9.232;2022-09-16T10:19:53;10.00;;;4.70;;
4460;SDS011;2243;48.812;9.232;2022-09-16T10:22:36;8.70;;;4.60;;
4460;SDS011;2243;48.812;9.232;2022-09-16T10:25:23;4.37;;;3.93;;
4460;SDS011;2243;48.812;9.232;2022-09-16T10:27:56;4.83;;;4.23;;
4460;SDS011;2243;48.812;9.232;2022-09-16T10:30:47;5.33;;;4.63;;
4460;SDS011;2243;48.812;9.232;2022-09-16T10:33:23;4.30;;;4.00;;
4460;SDS011;2243;48.812;9.232;2022-09-16T10:36:05;5.60;;;3.93;;
4460;SDS011;2243;48.812;9.232;2022-09-16T10:38:57;4.93;;;4.50;;
4460;SDS011;2243;48.812;9.232;2022-09-16T10:41:41;4.13;;;3.83;;
4460;SDS011;2243;48.812;9.232;2022-09-16T10:44:16;7.07;;;4.10;;
4460;SDS011;2243;48.812;9.232;2022-09-16T10:49:42;6.10;;;4.77;;
4460;SDS011;2243;48.812;9.232;2022-09-16T10:52:19;5.97;;;4.40;;
4460;SDS011;2243;48.812;9.232;2022-09-16T10:54:52;4.33;;;3.93;;
4460;SDS011;2243;48.812;9.232;2022-09-16T11:15:46;6.57;;;4.50;;
4460;SDS011;2243;48.812;9.232;2022-09-16T11:37:26;4.00;;;3.70;;
4460;SDS011;2243;48.812;9.232;2022-09-16T11:39:43;6.80;;;4.17;;
4460;SDS011;2243;48.812;9.232;2022-09-16T11:42:41;3.90;;;3.60;;
4460;SDS011;2243;48.812;9.232;2022-09-16T11:45:50;3.90;;;3.60;;
4460;SDS011;2243;48.812;9.232;2022-09-16T11:48:53;3.67;;;3.47;;
4460;SDS011;2243;48.812;9.232;2022-09-16T11:55:14;3.73;;;2.90;;
4460;SDS011;2243;48.812;9.232;2022-09-16T11:58:00;4.97;;;3.17;;
4460;SDS011;2243;48.812;9.232;2022-09-16T12:00:51;6.90;;;3.30;;
4460;SDS011;2243;48.812;9.232;2022-09-16T12:03:30;5.90;;;4.20;;
4460;SDS011;2243;48.812;9.232;2022-09-16T12:06:22;3.00;;;2.83;;
4460;SDS011;2243;48.812;9.232;2022-09-16T12:08:58;3.53;;;3.20;;
4460;SDS011;2243;48.812;9.232;2022-09-16T12:11:44;4.50;;;3.30;;
4460;SDS011;2243;48.812;9.232;2022-09-16T12:14:28;3.60;;;2.80;;
4460;SDS011;2243;48.812;9.232;2022-09-16T12:17:19;2.73;;;2.50;;
4460;SDS011;2243;48.812;9.232;2022-09-16T12:22:56;2.03;;;1.97;;
4460;SDS011;2243;48.812;9.232;2022-09-16T12:25:40;6.10;;;2.30;;
4460;SDS011;2243;48.812;9.232;2022-09-16T12:28:22;2.10;;;2.00;;
4460;SDS011;2243;48.812;9.232;2022-09-16T12:34:23;2.63;;;1.90;;
4460;SDS011;2243;48.812;9.232;2022-09-16T12:39:52;2.20;;;2.00;;
4460;SDS011;2243;48.812;9.232;2022-09-16T13:03:31;2.40;;;2.30;;
4460;SDS011;2243;48.812;9.232;2022-09-16T13:06:21;4.63;;;2.43;;
4460;SDS011;2243;48.812;9.232;2022-09-16T13:09:19;5.03;;;1.83;;
4460;SDS011;2243;48.812;9.232;2022-09-16T13:11:58;3.03;;;1.63;;
4460;SDS011;2243;48.812;9.232;2022-09-16T13:14:52;5.53;;;2.47;;
4460;SDS011;2243;48.812;9.232;2022-09-16T13:17:34;2.07;;;1.87;;
4460;SDS011;2243;48.812;9.232;2022-09-16T13:20:11;6.47;;;2.07;;
4460;SDS011;2243;48.812;9.232;2022-09-16T13:22:48;3.70;;;2.07;;
4460;SDS011;2243;48.812;9.232;2022-09-16T13:28:42;3.73;;;2.00;;
4460;SDS011;2243;48.812;9.232;2022-09-16T13:31:15;2.23;;;1.93;;
4460;SDS011;2243;48.812;9.232;2022-09-16T13:36:28;2.83;;;2.23;;
4460;SDS011;2243;48.812;9.232;2022-09-16T13:39:08;2.80;;;2.10;;
4460;SDS011;2243;48.812;9.232;2022-09-16T13:41:44;2.87;;;1.80;;
4460;SDS011;2243;48.812;9.232;2022-09-16T13:44:27;6.37;;;2.07;;
4460;SDS011;2243;48.812;9.232;2022-09-16T13:49:42;5.30;;;3.50;;
4460;SDS011;2243;48.812;9.232;2022-09-16T13:55:05;2.40;;;2.30;;
4460;SDS011;2243;48.812;9.232;2022-09-16T14:01:15;2.20;;;2.07;;
4460;SDS011;2243;48.812;9.232;2022-09-16T14:12:53;2.27;;;2.17;;
4460;SDS011;2243;48.812;9.232;2022-09-16T14:15:46;2.10;;;2.00;;
4460;SDS011;2243;48.812;9.232;2022-09-16T14:18:21;2.30;;;2.07;;
4460;SDS011;2243;48.812;9.232;2022-09-16T14:21:04;2.43;;;2.33;;
4460;SDS011;2243;48.812;9.232;2022-09-16T14:23:47;2.23;;;2.13;;
4460;SDS011;2243;48.812;9.232;2022-09-16T14:26:21;6.93;;;2.30;;
4460;SDS011;2243;48.812;9.232;2022-09-16T14:29:00;2.23;;;1.97;;
4460;SDS011;2243;48.812;9.232;2022-09-16T14:31:34;2.80;;;2.60;;
4460;SDS011;2243;48.812;9.232;2022-09-16T14:34:07;3.80;;;2.00;;
4460;SDS011;2243;48.812;9.232;2022-09-16T14:36:39;3.07;;;2.63;;
4460;SDS011;2243;48.812;9.232;2022-09-16T14:39:13;3.57;;;2.27;;
4460;SDS011;2243;48.812;9.232;2022-09-16T14:41:53;2.80;;;1.80;;
4460;SDS011;2243;48.812;9.232;2022-09-16T14:47:17;3.73;;;2.03;;
4460;SDS011;2243;48.812;9.232;2022-09-16T14:53:01;2.73;;;2.43;;
4460;SDS011;2243;48.812;9.232;2022-09-16T14:55:35;2.73;;;2.00;;
4460;SDS011;2243;48.812;9.232;2022-09-16T14:58:09;3.00;;;2.30;;
4460;SDS011;2243;48.812;9.232;2022-09-16T15:00:43;5.70;;;2.30;;
4460;SDS011;2243;48.812;9.232;2022-09-16T15:06:11;2.03;;;1.90;;
4460;SDS011;2243;48.812;9.232;2022-09-16T15:08:52;10.30;;;2.60;;
4460;SDS011;2243;48.812;9.232;2022-09-16T15:11:31;5.70;;;2.53;;
4460;SDS011;2243;48.812;9.232;2022-09-16T15:14:17;2.73;;;2.53;;
4460;SDS011;2243;48.812;9.232;2022-09-16T15:16:56;2.07;;;1.97;;
4460;SDS011;2243;48.812;9.232;2022-09-16T15:19:36;3.20;;;2.70;;
4460;SDS011;2243;48.812;9.232;2022-09-16T15:22:12;3.50;;;2.10;;
4460;SDS011;2243;48.812;9.232;2022-09-16T15:24:44;3.93;;;2.13;;
4460;SDS011;2243;48.812;9.232;2022-09-16T15:27:23;3.60;;;2.40;;
4460;SDS011;2243;48.812;9.232;2022-09-16T15:29:58;2.87;;;2.20;;
4460;SDS011;2243;48.812;9.232;2022-09-16T15:32:41;7.80;;;2.80;;
4460;SDS011;2243;48.812;9.232;2022-09-16T15:35:17;2.23;;;2.13;;
4460;SDS011;2243;48.812;9.232;2022-09-16T15:37:52;4.93;;;3.70;;
4460;SDS011;2243;48.812;9.232;2022-09-16T15:45:55;2.47;;;2.27;;
4460;SDS011;2243;48.812;9.232;2022-09-16T15:48:36;4.47;;;2.47;;
4460;SDS011;2243;48.812;9.232;2022-09-16T15:51:19;5.80;;;2.40;;
4460;SDS011;2243;48.812;9.232;2022-09-16T15:54:20;2.53;;;2.33;;
4460;SDS011;2243;48.812;9.232;2022-09-16T15:57:32;1.87;;;1.77;;
4460;SDS011;2243;48.812;9.232;2022-09-16T16:00:10;2.23;;;2.03;;
4460;SDS011;2243;48.812;9.232;2022-09-16T16:05:24;8.60;;;2.03;;
4460;SDS011;2243;48.812;9.232;2022-09-16T16:07:59;2.47;;;2.00;;
4460;SDS011;2243;48.812;9.232;2022-09-16T16:10:39;3.33;;;1.90;;
4460;SDS011;2243;48.812;9.232;2022-09-16T16:13:11;4.90;;;2.00;;
4460;SDS011;2243;48.812;9.232;2022-09-16T16:15:41;2.70;;;1.77;;
4460;SDS011;2243;48.812;9.232;2022-09-16T16:18:13;3.00;;;2.00;;
4460;SDS011;2243;48.812;9.232;2022-09-16T16:20:44;4.20;;;2.33;;
4460;SDS011;2243;48.812;9.232;2022-09-16T16:23:15;2.27;;;2.13;;
4460;SDS011;2243;48.812;9.232;2022-09-16T16:25:46;2.40;;;2.20;;
4460;SDS011;2243;48.812;9.232;2022-09-16T16:28:17;1.90;;;1.67;;
4460;SDS011;2243;48.812;9.232;2022-09-16T16:30:48;1.80;;;1.70;;
4460;SDS011;2243;48.812;9.232;2022-09-16T16:33:19;2.50;;;2.40;;
4460;SDS011;2243;48.812;9.232;2022-09-16T16:35:50;2.53;;;2.17;;
4460;SDS011;2243;48.812;9.232;2022-09-16T16:38:21;6.37;;;2.00;;
4460;SDS011;2243;48.812;9.232;2022-09-16T16:40:51;3.13;;;2.50;;
4460;SDS011;2243;48.812;9.232;2022-09-16T16:43:22;3.20;;;2.43;;
4460;SDS011;2243;48.812;9.232;2022-09-16T16:45:54;2.60;;;2.00;;
4460;SDS011;2243;48.812;9.232;2022-09-16T16:48:26;2.37;;;2.17;;
4460;SDS011;2243;48.812;9.232;2022-09-16T16:50:58;2.27;;;2.10;;
4460;SDS011;2243;48.812;9.232;2022-09-16T16:53:33;2.77;;;2.10;;
4460;SDS011;2243;48.812;9.232;2022-09-16T16:56:08;2.20;;;2.10;;
4460;SDS011;2243;48.812;9.232;2022-09-16T16:58:44;2.27;;;2.10;;
4460;SDS011;2243;48.812;9.232;2022-09-16T17:01:17;2.23;;;2.13;;
4460;SDS011;2243;48.812;9.232;2022-09-16T17:03:49;3.13;;;1.90;;
4460;SDS011;2243;48.812;9.232;2022-09-16T17:06:20;2.60;;;2.40;;
4460;SDS011;2243;48.812;9.232;2022-09-16T17:08:51;3.17;;;1.77;;
4460;SDS011;2243;48.812;9.232;2022-09-16T17:11:22;3.57;;;1.90;;
4460;SDS011;2243;48.812;9.232;2022-09-16T17:13:57;1.80;;;1.67;;
4460;SDS011;2243;48.812;9.232;2022-09-16T17:16:31;2.00;;;1.90;;
4460;SDS011;2243;48.812;9.232;2022-09-16T17:19:03;2.03;;;1.83;;
4460;SDS011;2243;48.812;9.232;2022-09-16T17:21:34;1.90;;;1.80;;
4460;SDS011;2243;48.812;9.232;2022-09-16T17:24:06;1.80;;;1.57;;
4460;SDS011;2243;48.812;9.232;2022-09-16T17:26:37;2.77;;;1.30;;
4460;SDS011;2243;48.812;9.232;2022-09-16T17:29:08;1.23;;;1.10;;
4460;SDS011;2243;48.812;9.232;2022-09-16T17:31:45;1.23;;;1.20;;
4460;SDS011;2243;48.812;9.232;2022-09-16T17:34:16;2.10;;;1.40;;
4460;SDS011;2243;48.812;9.232;2022-09-16T17:36:47;1.70;;;1.60;;
4460;SDS011;2243;48.812;9.232;2022-09-16T17:39:20;1.93;;;1.40;;
4460;SDS011;2243;48.812;9.232;2022-09-16T17:41:51;3.00;;;1.73;;
4460;SDS011;2243;48.812;9.232;2022-09-16T17:44:25;2.23;;;1.80;;
4460;SDS011;2243;48.812;9.232;2022-09-16T17:46:56;2.47;;;1.90;;
4460;SDS011;2243;48.812;9.232;2022-09-16T17:49:27;1.70;;;1.60;;
4460;SDS011;2243;48.812;9.232;2022-09-16T17:51:58;1.80;;;1.70;;
4460;SDS011;2243;48.812;9.232;2022-09-16T17:54:29;2.33;;;2.13;;
4460;SDS011;2243;48.812;9.232;2022-09-16T17:57:00;2.90;;;1.53;;
4460;SDS011;2243;48.812;9.232;2022-09-16T17:59:31;2.03;;;1.83;;
4460;SDS011;2243;48.812;9.232;2022-09-16T18:02:02;2.60;;;2.30;;
4460;SDS011;2243;48.812;9.232;2022-09-16T18:04:33;2.57;;;2.37;;
4460;SDS011;2243;48.812;9.232;2022-09-16T18:07:04;4.80;;;2.40;;
4460;SDS011;2243;48.812;9.232;2022-09-16T18:09:35;3.97;;;2.60;;
4460;SDS011;2243;48.812;9.232;2022-09-16T18:12:06;3.47;;;1.90;;
4460;SDS011;2243;48.812;9.232;2022-09-16T18:14:37;4.80;;;2.20;;
4460;SDS011;2243;48.812;9.232;2022-09-16T18:17:08;4.40;;;2.47;;
4460;SDS011;2243;48.812;9.232;2022-09-16T18:19:39;2.47;;;2.27;;
4460;SDS011;2243;48.812;9.232;2022-09-16T18:22:10;2.50;;;2.40;;
4460;SDS011;2243;48.812;9.232;2022-09-16T18:24:41;2.43;;;2.33;;
4460;SDS011;2243;48.812;9.232;2022-09-16T18:27:12;5.17;;;2.20;;
4460;SDS011;2243;48.812;9.232;2022-09-16T18:29:42;2.20;;;2.10;;
4460;SDS011;2243;48.812;9.232;2022-09-16T18:32:13;2.50;;;2.33;;
4460;SDS011;2243;48.812;9.232;2022-09-16T18:34:44;2.40;;;2.30;;
4460;SDS011;2243;48.812;9.232;2022-09-16T18:37:15;2.90;;;2.50;;
4460;SDS011;2243;48.812;9.232;2022-09-16T18:39:46;2.30;;;2.20;;
4460;SDS011;2243;48.812;9.232;2022-09-16T18:42:18;2.20;;;2.00;;
4460;SDS011;2243;48.812;9.232;2022-09-16T18:44:48;2.30;;;2.10;;
4460;SDS011;2243;48.812;9.232;2022-09-16T18:47:20;6.57;;;2.40;;
4460;SDS011;2243;48.812;9.232;2022-09-16T18:49:50;2.00;;;1.83;;
4460;SDS011;2243;48.812;9.232;2022-09-16T18:52:21;2.40;;;2.30;;
4460;SDS011;2243;48.812;9.232;2022-09-16T18:54:52;2.87;;;2.00;;
4460;SDS011;2243;48.812;9.232;2022-09-16T18:57:23;1.83;;;1.73;;
4460;SDS011;2243;48.812;9.232;2022-09-16T18:59:54;1.90;;;1.80;;
4460;SDS011;2243;48.812;9.232;2022-09-16T19:02:25;2.60;;;1.90;;
4460;SDS011;2243;48.812;9.232;2022-09-16T19:04:56;2.10;;;1.93;;
4460;SDS011;2243;48.812;9.232;2022-09-16T19:07:27;2.03;;;1.83;;
4460;SDS011;2243;48.812;9.232;2022-09-16T19:09:58;1.60;;;1.50;;
4460;SDS011;2243;48.812;9.232;2022-09-16T19:12:29;2.30;;;1.90;;
4460;SDS011;2243;48.812;9.232;2022-09-16T19:15:06;1.93;;;1.60;;
4460;SDS011;2243;48.812;9.232;2022-09-16T19:17:38;1.77;;;1.67;;
4460;SDS011;2243;48.812;9.232;2022-09-16T19:20:09;1.20;;;1.20;;
4460;SDS011;2243;48.812;9.232;2022-09-16T19:22:40;1.53;;;1.43;;
4460;SDS011;2243;48.812;9.232;2022-09-16T19:25:10;2.00;;;1.90;;